Terminal Aerodrome Forecast
Issued by NWS Atlanta, GA

Home | Current Version | Previous Version | Text Only | Print | Product List | Glossary On
Versions: 1 2 3 4 5 6 7 8 9 10 11 12 13 14 15 16 17 18 19 20 21 22 23 24 25 26 27 28 29 30 31 32 33 34 35 36 37 38 39 40 41 42
000
FTUS42 KFFC 031947 AAA
TAFATL
TAF AMD
KATL 031947Z 0320/0424 12011KT P6SM VCSH FEW030 SCT070 BKN200
      TEMPO 0320/0323 VRB15G25KT 5SM TSRA BKN045CB
     FM040000 09005KT P6SM SCT150
     FM040600 09006KT P6SM SCT025
     FM041000 08006KT P6SM SCT008 BKN015
     FM041500 08006KT P6SM BKN040
     FM042100 09005KT P6SM BKN050=

USA.gov is the U.S. government's official web portal to all federal, state and local government web resources and services.